Time;durP1;ratioP1;P1;durP2;ratioP2;P2;SDS_P1;SDS_P2;PMS_P1;PMS_P2;Temp;Humidity;BMP_temperature;BMP_pressure;BME280_temperature;BME280_humidity;BME280_pressure;Samples;Min_cycle;Max_cycle;Signal;HPM_P1;HPM_P2
2023/07/19 00:00:13;;;;;;;13.38;2.45;;;26.30;71.20;;;;;;5075784;28;20036;-72
2023/07/19 00:02:39;;;;;;;11.60;2.80;;;26.30;71.20;;;;;;5075897;28;20020;-72
2023/07/19 00:05:05;;;;;;;9.00;2.35;;;26.30;71.70;;;;;;5075836;28;20398;-72
2023/07/19 00:07:30;;;;;;;7.72;2.58;;;26.20;71.60;;;;;;5075880;28;20150;-72
2023/07/19 00:09:56;;;;;;;7.57;2.60;;;26.20;71.40;;;;;;5075601;28;20411;-72
2023/07/19 00:12:22;;;;;;;9.65;2.45;;;26.20;71.30;;;;;;5075504;28;20021;-72
2023/07/19 00:14:48;;;;;;;7.72;2.80;;;26.20;71.30;;;;;;5075833;28;20020;-72
2023/07/19 00:17:13;;;;;;;14.18;2.70;;;26.20;71.40;;;;;;5075399;28;20044;-72
2023/07/19 00:19:39;;;;;;;11.52;2.55;;;26.10;71.70;;;;;;5075685;28;20029;-72
2023/07/19 00:22:05;;;;;;;9.10;2.30;;;26.10;71.80;;;;;;5075254;28;20082;-72
2023/07/19 00:24:31;;;;;;;12.35;2.60;;;26.10;71.80;;;;;;5075339;28;20024;-72
2023/07/19 00:26:56;;;;;;;7.93;2.47;;;26.10;72.00;;;;;;5075425;28;20083;-72
2023/07/19 00:29:22;;;;;;;13.32;2.22;;;26.10;72.10;;;;;;5075240;28;20025;-72
2023/07/19 00:31:48;;;;;;;8.93;2.72;;;26.10;72.30;;;;;;5075017;28;20028;-72
2023/07/19 00:34:14;;;;;;;11.77;2.08;;;26.10;72.40;;;;;;5075354;28;20497;-72
2023/07/19 00:36:40;;;;;;;8.18;2.83;;;26.10;72.40;;;;;;5075337;28;20025;-72
2023/07/19 00:39:05;;;;;;;7.20;2.17;;;26.10;72.50;;;;;;5075074;28;20528;-72
2023/07/19 00:41:31;;;;;;;12.05;2.75;;;26.10;72.70;;;;;;5075018;28;20383;-72
2023/07/19 00:43:57;;;;;;;10.35;2.50;;;26.10;72.80;;;;;;5075157;28;20095;-72
2023/07/19 00:46:23;;;;;;;8.68;2.97;;;26.10;72.90;;;;;;5075086;28;20048;-72
2023/07/19 00:48:49;;;;;;;9.25;2.42;;;26.00;72.70;;;;;;5075150;28;20012;-72
2023/07/19 00:51:16;;;;;;;9.15;2.92;;;26.00;72.70;;;;;;5075095;28;20070;-72
2023/07/19 00:53:44;;;;;;;16.60;3.17;;;26.00;72.80;;;;;;5074740;28;20081;-72
2023/07/19 00:56:10;;;;;;;11.35;2.33;;;26.00;72.90;;;;;;5074673;28;20032;-72
2023/07/19 00:58:36;;;;;;;10.43;3.03;;;26.00;73.00;;;;;;5072525;28;20545;-72
2023/07/19 01:01:05;;;;;;;9.73;2.92;;;25.90;72.80;;;;;;5071360;28;20072;-72
2023/07/19 01:03:30;;;;;;;13.13;2.60;;;25.90;72.80;;;;;;5071574;28;20482;-72
2023/07/19 01:05:58;;;;;;;8.55;2.72;;;25.90;73.10;;;;;;5073936;28;20028;-73
2023/07/19 01:08:25;;;;;;;7.90;2.75;;;25.90;73.20;;;;;;5074769;28;20021;-72
2023/07/19 01:10:51;;;;;;;9.55;2.80;;;25.90;74.10;;;;;;5074268;28;20025;-72
2023/07/19 01:13:17;;;;;;;10.50;2.90;;;25.90;73.80;;;;;;5074428;28;20497;-72
2023/07/19 01:15:43;;;;;;;8.65;2.33;;;25.90;73.70;;;;;;5074460;28;20078;-72
2023/07/19 01:18:09;;;;;;;11.05;2.80;;;25.80;73.70;;;;;;5074382;28;20436;-72
2023/07/19 01:20:35;;;;;;;7.65;2.88;;;25.80;73.60;;;;;;5073965;28;20075;-72
2023/07/19 01:23:02;;;;;;;11.27;3.17;;;25.80;73.60;;;;;;5074296;28;20025;-72
2023/07/19 01:25:28;;;;;;;11.65;3.10;;;25.80;73.80;;;;;;5074325;28;20024;-72
2023/07/19 01:27:54;;;;;;;13.50;3.00;;;25.80;73.80;;;;;;5074018;28;20047;-72
2023/07/19 01:30:20;;;;;;;14.82;2.83;;;25.80;73.80;;;;;;5073888;28;20486;-72
2023/07/19 01:32:46;;;;;;;8.65;2.58;;;25.80;73.80;;;;;;5074133;28;20064;-72
2023/07/19 01:35:11;;;;;;;8.27;2.85;;;25.80;73.90;;;;;;5055755;28;20036;-72
2023/07/19 01:37:37;;;;;;;11.90;3.28;;;25.70;73.70;;;;;;5073931;28;20025;-72
2023/07/19 01:40:07;;;;;;;11.63;2.90;;;25.70;73.70;;;;;;5073822;28;20099;-72
2023/07/19 01:42:32;;;;;;;12.32;2.80;;;25.80;73.90;;;;;;5073153;28;20028;-73
2023/07/19 01:45:01;;;;;;;15.68;2.70;;;25.70;73.80;;;;;;5073823;28;20054;-72
2023/07/19 01:47:27;;;;;;;8.85;2.95;;;25.70;73.90;;;;;;5073805;28;20471;-72
2023/07/19 01:49:54;;;;;;;9.90;3.35;;;25.70;73.90;;;;;;5073850;28;20049;-72
2023/07/19 01:52:19;;;;;;;13.52;3.10;;;25.70;74.10;;;;;;5073680;28;20470;-72
2023/07/19 01:54:45;;;;;;;10.88;2.67;;;25.60;74.30;;;;;;5073764;28;20025;-72
2023/07/19 01:57:11;;;;;;;6.93;2.22;;;25.60;74.10;;;;;;5073676;28;20033;-72
2023/07/19 01:59:37;;;;;;;8.52;3.05;;;25.60;74.00;;;;;;5073661;28;20107;-72
2023/07/19 02:02:04;;;;;;;13.45;3.22;;;25.60;73.90;;;;;;5073552;28;20104;-72
2023/07/19 02:04:30;;;;;;;8.68;3.47;;;25.60;73.80;;;;;;5073572;28;20032;-72
2023/07/19 02:06:56;;;;;;;12.23;2.70;;;25.60;73.80;;;;;;5073224;28;20076;-72
2023/07/19 02:09:22;;;;;;;6.68;2.70;;;25.60;75.00;;;;;;5073402;28;20024;-72
2023/07/19 02:11:48;;;;;;;11.77;3.05;;;25.60;76.00;;;;;;5073683;28;20088;-72
2023/07/19 02:14:14;;;;;;;10.70;2.78;;;25.50;76.70;;;;;;5073354;28;20059;-72
2023/07/19 02:16:39;;;;;;;8.20;2.78;;;25.50;76.90;;;;;;5073230;28;20158;-72
2023/07/19 02:19:06;;;;;;;11.07;2.67;;;25.40;76.60;;;;;;5073506;28;20025;-72
2023/07/19 02:21:32;;;;;;;10.18;3.13;;;25.40;76.40;;;;;;5055206;28;20392;-72
2023/07/19 02:23:59;;;;;;;10.75;2.20;;;25.40;76.30;;;;;;5073231;28;20066;-72
2023/07/19 02:26:25;;;;;;;8.93;2.33;;;25.40;76.20;;;;;;5055237;28;20101;-72
2023/07/19 02:28:51;;;;;;;10.57;2.95;;;25.40;76.60;;;;;;5073202;28;20021;-72
2023/07/19 02:31:18;;;;;;;11.60;2.83;;;25.40;76.80;;;;;;5073031;28;20025;-72
2023/07/19 02:33:43;;;;;;;9.57;3.15;;;25.40;76.90;;;;;;5073195;28;20078;-72
2023/07/19 02:36:11;;;;;;;11.50;2.63;;;25.40;77.10;;;;;;5073092;28;20028;-72
2023/07/19 02:38:37;;;;;;;9.82;2.75;;;25.40;77.20;;;;;;5072837;28;20465;-72
2023/07/19 02:41:02;;;;;;;9.05;2.67;;;25.40;77.00;;;;;;5072818;28;20048;-72
2023/07/19 02:43:28;;;;;;;7.38;2.75;;;25.30;76.90;;;;;;5073241;28;20096;-72
2023/07/19 02:45:55;;;;;;;11.88;2.72;;;25.30;76.90;;;;;;5072916;28;20101;-73
2023/07/19 02:48:21;;;;;;;8.50;2.78;;;25.30;76.80;;;;;;5072926;28;20466;-72
2023/07/19 02:50:48;;;;;;;8.95;3.00;;;25.30;76.80;;;;;;5072740;28;20116;-72
2023/07/19 02:53:14;;;;;;;9.10;2.88;;;25.30;76.70;;;;;;5072628;28;20539;-72
2023/07/19 02:55:43;;;;;;;8.40;2.90;;;25.30;76.80;;;;;;5072687;28;20024;-72
2023/07/19 02:58:09;;;;;;;7.28;2.70;;;25.30;76.70;;;;;;5073041;28;20489;-72
2023/07/19 03:00:40;;;;;;;8.35;3.05;;;25.30;76.40;;;;;;5072688;28;20029;-72
2023/07/19 03:03:06;;;;;;;8.82;2.80;;;25.30;76.40;;;;;;5072634;28;20017;-72
2023/07/19 03:05:34;;;;;;;12.73;3.25;;;25.30;76.70;;;;;;5072686;28;20035;-72
2023/07/19 03:08:01;;;;;;;9.85;2.92;;;25.30;76.50;;;;;;5072871;28;20024;-72
2023/07/19 03:10:27;;;;;;;7.70;2.97;;;25.30;76.20;;;;;;5072624;28;20462;-72
2023/07/19 03:12:53;;;;;;;9.13;3.35;;;25.30;76.20;;;;;;5054724;28;20409;-72
2023/07/19 03:15:20;;;;;;;11.85;2.92;;;25.20;75.70;;;;;;5072707;28;20024;-72
2023/07/19 03:17:45;;;;;;;11.60;2.70;;;25.30;75.60;;;;;;5072452;28;20128;-72
2023/07/19 03:20:11;;;;;;;13.90;3.22;;;25.30;75.50;;;;;;5072521;28;20111;-72
2023/07/19 03:22:37;;;;;;;9.60;2.63;;;25.30;75.60;;;;;;5072855;28;20029;-72
2023/07/19 03:25:03;;;;;;;10.02;3.53;;;25.30;75.50;;;;;;5072454;28;20039;-72
2023/07/19 03:27:29;;;;;;;8.90;2.95;;;25.30;75.40;;;;;;5072594;28;20043;-72
2023/07/19 03:29:55;;;;;;;12.50;3.03;;;25.30;75.20;;;;;;5072497;28;20029;-72
2023/07/19 03:32:20;;;;;;;6.95;2.60;;;25.30;75.30;;;;;;5072460;28;20481;-72
2023/07/19 03:34:46;;;;;;;16.25;3.65;;;25.30;75.30;;;;;;5072442;28;20048;-72
2023/07/19 03:37:12;;;;;;;8.52;2.63;;;25.30;75.30;;;;;;5054701;28;20024;-72
2023/07/19 03:39:38;;;;;;;11.75;2.80;;;25.30;75.30;;;;;;5054585;28;20028;-72
2023/07/19 03:42:04;;;;;;;14.07;2.83;;;25.30;75.40;;;;;;5072517;28;20066;-72
2023/07/19 03:44:29;;;;;;;8.23;2.67;;;25.30;75.40;;;;;;5072451;28;20127;-72
2023/07/19 03:46:55;;;;;;;11.93;3.90;;;25.30;75.40;;;;;;5071962;28;20170;-72
2023/07/19 03:49:21;;;;;;;9.38;2.70;;;25.20;75.40;;;;;;5072407;28;20020;-72
2023/07/19 03:51:46;;;;;;;8.27;2.70;;;25.20;75.60;;;;;;5072490;28;20024;-72
2023/07/19 03:54:12;;;;;;;13.18;3.25;;;25.20;75.90;;;;;;5072284;28;20028;-72
2023/07/19 03:56:38;;;;;;;13.65;3.20;;;25.20;76.10;;;;;;5072347;28;20047;-72
2023/07/19 03:59:03;;;;;;;11.60;3.20;;;25.20;76.30;;;;;;5072049;28;20033;-72
2023/07/19 04:01:29;;;;;;;10.77;3.50;;;25.20;76.30;;;;;;5072207;28;20029;-72
2023/07/19 04:03:55;;;;;;;11.50;3.35;;;25.20;76.20;;;;;;5072206;28;20028;-72
2023/07/19 04:06:21;;;;;;;9.38;3.13;;;25.20;76.30;;;;;;5074177;28;20033;-73
2023/07/19 04:08:46;;;;;;;11.20;3.30;;;25.20;76.30;;;;;;5075685;28;20095;-72
2023/07/19 04:11:12;;;;;;;10.90;3.38;;;25.30;76.40;;;;;;5075740;28;20020;-72
2023/07/19 04:13:38;;;;;;;12.23;3.33;;;25.20;76.30;;;;;;5075735;28;20016;-72
2023/07/19 04:16:04;;;;;;;8.68;3.42;;;25.20;76.40;;;;;;5075356;28;20054;-72
2023/07/19 04:18:29;;;;;;;11.82;3.55;;;25.20;76.40;;;;;;5075584;28;20425;-72
2023/07/19 04:20:57;;;;;;;11.77;3.30;;;25.30;76.50;;;;;;5075468;28;20067;-72
2023/07/19 04:23:23;;;;;;;7.45;3.05;;;25.30;76.50;;;;;;5075304;28;20127;-73
2023/07/19 04:25:50;;;;;;;11.43;3.40;;;25.30;76.60;;;;;;5075320;28;20101;-72
2023/07/19 04:28:16;;;;;;;11.00;3.88;;;25.30;76.60;;;;;;5075268;28;20017;-72
2023/07/19 04:30:41;;;;;;;14.85;3.78;;;25.30;76.70;;;;;;5075471;28;20387;-72
2023/07/19 04:33:08;;;;;;;12.20;3.97;;;25.30;76.70;;;;;;5075514;28;20075;-72
2023/07/19 04:35:33;;;;;;;8.60;3.50;;;25.30;76.70;;;;;;5075091;28;20025;-72
2023/07/19 04:37:59;;;;;;;11.23;3.42;;;25.30;76.70;;;;;;5075523;28;20021;-72
2023/07/19 04:40:25;;;;;;;13.85;3.53;;;25.30;76.80;;;;;;5075098;28;20024;-72
2023/07/19 04:42:51;;;;;;;8.27;3.28;;;25.30;76.90;;;;;;5075074;28;20020;-73
2023/07/19 04:45:16;;;;;;;8.90;3.00;;;25.30;77.10;;;;;;5074930;28;20038;-72
2023/07/19 04:47:42;;;;;;;9.90;3.17;;;25.30;77.10;;;;;;5075008;28;20113;-72
2023/07/19 04:50:09;;;;;;;9.90;3.47;;;25.30;77.10;;;;;;5075023;28;20016;-72
2023/07/19 04:52:36;;;;;;;9.55;3.45;;;25.30;77.20;;;;;;5074995;28;20544;-72
2023/07/19 04:55:02;;;;;;;10.48;3.20;;;25.30;77.40;;;;;;5075021;28;20486;-72
2023/07/19 04:57:29;;;;;;;14.90;3.38;;;25.30;77.40;;;;;;5074876;28;20536;-72
2023/07/19 04:59:54;;;;;;;11.60;3.55;;;25.30;77.50;;;;;;5074505;28;20028;-73
2023/07/19 05:02:20;;;;;;;6.72;3.25;;;25.30;77.90;;;;;;5074779;28;20351;-73
2023/07/19 05:04:46;;;;;;;12.00;3.42;;;25.30;77.90;;;;;;5074616;28;20086;-71
2023/07/19 05:07:11;;;;;;;8.55;3.58;;;25.30;78.00;;;;;;5074716;28;20029;-72
2023/07/19 05:09:37;;;;;;;10.73;2.92;;;25.30;78.00;;;;;;5074643;28;20021;-71
2023/07/19 05:12:04;;;;;;;7.85;3.30;;;25.30;77.90;;;;;;5074140;28;20024;-71
2023/07/19 05:14:30;;;;;;;10.38;3.03;;;25.30;77.70;;;;;;5074280;28;20379;-71
2023/07/19 05:16:56;;;;;;;13.32;2.95;;;25.30;77.70;;;;;;5073106;28;20053;-71
2023/07/19 05:19:21;;;;;;;16.30;3.60;;;25.30;77.70;;;;;;5074279;28;20090;-72
2023/07/19 05:21:47;;;;;;;9.98;2.78;;;25.30;77.60;;;;;;5074194;28;20050;-72
2023/07/19 05:24:13;;;;;;;11.43;3.20;;;25.30;77.80;;;;;;5074364;28;20020;-72
2023/07/19 05:26:39;;;;;;;12.10;3.33;;;25.20;77.80;;;;;;5074346;28;20036;-71
2023/07/19 05:29:05;;;;;;;11.20;3.15;;;25.30;78.20;;;;;;5074014;28;20021;-71
2023/07/19 05:31:34;;;;;;;10.98;3.30;;;25.30;78.50;;;;;;5073848;28;20028;-71
2023/07/19 05:34:00;;;;;;;7.63;3.28;;;25.30;78.50;;;;;;5074148;28;20021;-71
2023/07/19 05:36:25;;;;;;;11.90;3.03;;;25.30;78.50;;;;;;5074022;28;20027;-71
2023/07/19 05:38:51;;;;;;;11.10;3.17;;;25.40;78.50;;;;;;5074057;28;20078;-71
2023/07/19 05:41:17;;;;;;;13.13;3.38;;;25.40;78.30;;;;;;5074082;28;20037;-71
2023/07/19 05:43:42;;;;;;;15.82;3.72;;;25.40;78.10;;;;;;5073780;28;20013;-73
2023/07/19 05:46:09;;;;;;;9.77;3.15;;;25.40;78.00;;;;;;5073834;28;20102;-72
2023/07/19 05:48:35;;;;;;;13.82;3.45;;;25.40;77.70;;;;;;5073860;28;20043;-72
2023/07/19 05:51:05;;;;;;;11.68;2.97;;;25.40;77.30;;;;;;5073881;28;20037;-72
2023/07/19 05:53:31;;;;;;;12.18;3.10;;;25.50;76.80;;;;;;5073838;28;20098;-72
2023/07/19 05:55:57;;;;;;;11.68;2.75;;;25.50;76.80;;;;;;5073613;28;20421;-72
2023/07/19 05:58:23;;;;;;;7.80;3.05;;;25.50;76.60;;;;;;5073537;28;20020;-72
2023/07/19 06:00:49;;;;;;;12.35;3.33;;;25.50;76.50;;;;;;5073691;28;20021;-71
2023/07/19 06:03:16;;;;;;;11.18;4.22;;;25.60;76.40;;;;;;5073609;28;20513;-72
2023/07/19 06:05:43;;;;;;;10.18;4.13;;;25.60;76.40;;;;;;5073670;28;20041;-71
2023/07/19 06:08:10;;;;;;;15.27;3.83;;;25.60;76.40;;;;;;5073391;28;20020;-72
2023/07/19 06:10:36;;;;;;;12.70;3.60;;;25.70;76.70;;;;;;5073187;28;20436;-72
2023/07/19 06:13:03;;;;;;;16.27;3.50;;;25.70;77.40;;;;;;5073456;28;20028;-72
2023/07/19 06:15:30;;;;;;;12.27;3.80;;;25.80;77.90;;;;;;5073525;28;20068;-72
2023/07/19 06:17:56;;;;;;;12.80;4.03;;;25.80;78.10;;;;;;5073157;28;20048;-72
2023/07/19 06:20:22;;;;;;;10.27;3.97;;;25.90;78.20;;;;;;5073366;28;20058;-72
2023/07/19 06:22:47;;;;;;;11.02;3.70;;;25.90;78.20;;;;;;5073041;28;20017;-72
2023/07/19 06:25:15;;;;;;;11.98;3.70;;;25.90;78.20;;;;;;5072879;28;20032;-72
2023/07/19 06:27:42;;;;;;;11.70;3.65;;;25.90;78.20;;;;;;5072993;28;20078;-71
2023/07/19 06:30:11;;;;;;;8.43;3.30;;;26.00;78.10;;;;;;5073028;28;20074;-72
2023/07/19 06:32:37;;;;;;;17.05;4.90;;;26.10;78.30;;;;;;5072872;28;20027;-72
2023/07/19 06:35:08;;;;;;;15.70;3.65;;;26.10;78.20;;;;;;5072769;28;20025;-72
2023/07/19 06:37:34;;;;;;;10.07;3.30;;;26.20;78.00;;;;;;5072775;28;20028;-73
2023/07/19 06:40:03;;;;;;;17.77;4.60;;;26.20;77.60;;;;;;5072783;28;20027;-73
2023/07/19 06:42:28;;;;;;;18.23;4.03;;;26.20;77.40;;;;;;5072843;28;20078;-73
2023/07/19 06:44:56;;;;;;;8.48;3.40;;;26.30;77.00;;;;;;5072757;28;20021;-72
2023/07/19 06:47:22;;;;;;;11.13;3.53;;;26.40;76.70;;;;;;5054855;28;20032;-73
2023/07/19 06:49:48;;;;;;;14.82;3.88;;;26.40;76.60;;;;;;5072720;28;20021;-73
2023/07/19 06:52:13;;;;;;;8.02;3.40;;;26.40;76.70;;;;;;5072677;28;20028;-73
2023/07/19 06:54:39;;;;;;;11.23;3.78;;;26.50;76.90;;;;;;5072767;28;20028;-73
2023/07/19 06:57:05;;;;;;;12.23;3.95;;;26.50;76.50;;;;;;5072739;28;20058;-73
2023/07/19 06:59:31;;;;;;;10.80;3.92;;;26.60;76.40;;;;;;5072461;28;20078;-73
2023/07/19 07:01:57;;;;;;;11.50;3.53;;;26.60;76.60;;;;;;5054630;28;20431;-72
2023/07/19 07:04:24;;;;;;;10.75;3.50;;;26.70;76.70;;;;;;5072891;28;20027;-73
2023/07/19 07:06:50;;;;;;;11.23;3.67;;;26.70;76.60;;;;;;5072803;28;20170;-72
2023/07/19 07:09:16;;;;;;;8.80;3.38;;;26.80;76.40;;;;;;5054493;28;20111;-73
2023/07/19 07:11:41;;;;;;;15.05;3.58;;;26.80;76.00;;;;;;5072752;28;20036;-73
2023/07/19 07:14:08;;;;;;;15.23;4.03;;;26.80;76.00;;;;;;5072610;28;20013;-73
2023/07/19 07:16:34;;;;;;;10.50;3.70;;;26.90;76.50;;;;;;5072433;28;20063;-72
2023/07/19 07:19:00;;;;;;;10.38;3.42;;;26.90;76.70;;;;;;5072871;28;20486;-73
2023/07/19 07:21:26;;;;;;;14.18;3.75;;;27.00;77.00;;;;;;5072528;28;20041;-73
2023/07/19 07:23:52;;;;;;;15.65;3.70;;;27.10;77.10;;;;;;5072425;28;20074;-73
2023/07/19 07:26:18;;;;;;;12.13;3.55;;;27.10;76.40;;;;;;5072380;28;20082;-72
2023/07/19 07:28:44;;;;;;;15.20;3.70;;;27.10;76.30;;;;;;5072754;28;20096;-72
2023/07/19 07:31:11;;;;;;;11.88;4.03;;;27.20;76.60;;;;;;5072547;28;20048;-72
2023/07/19 07:33:38;;;;;;;15.18;3.80;;;27.20;76.40;;;;;;5072422;28;20099;-72
2023/07/19 07:36:04;;;;;;;11.23;4.00;;;27.30;76.60;;;;;;5070822;28;20463;-72
2023/07/19 07:38:29;;;;;;;12.80;3.75;;;27.30;76.40;;;;;;5072114;28;20021;-72
2023/07/19 07:41:05;;;;;;;10.23;3.63;;;27.30;76.10;;;;;;5073860;28;20024;-72
2023/07/19 07:43:31;;;;;;;10.70;3.80;;;27.40;76.30;;;;;;5076404;28;20107;-72
2023/07/19 07:45:58;;;;;;;13.27;5.53;;;27.40;76.20;;;;;;5076027;28;20474;-72
2023/07/19 07:48:24;;;;;;;11.43;3.70;;;27.50;76.00;;;;;;5075955;28;20012;-72
2023/07/19 07:50:51;;;;;;;10.10;4.20;;;27.50;75.80;;;;;;5076065;28;20032;-72
2023/07/19 07:53:21;;;;;;;7.75;4.22;;;27.50;75.80;;;;;;5075936;28;20012;-72
2023/07/19 07:55:50;;;;;;;8.45;3.80;;;27.60;75.90;;;;;;5076179;28;20035;-72
2023/07/19 07:58:17;;;;;;;11.57;3.60;;;27.70;76.20;;;;;;5075715;28;20489;-72
2023/07/19 08:00:43;;;;;;;13.45;3.80;;;27.70;76.30;;;;;;5075531;28;20066;-72
2023/07/19 08:03:09;;;;;;;11.23;3.80;;;27.70;76.10;;;;;;5075711;28;20410;-72
2023/07/19 08:05:35;;;;;;;8.30;4.10;;;27.80;76.10;;;;;;5075521;28;20029;-72
2023/07/19 08:08:03;;;;;;;15.70;4.32;;;27.90;76.90;;;;;;5075564;28;20039;-72
2023/07/19 08:10:29;;;;;;;10.95;4.18;;;27.90;77.40;;;;;;5075614;28;20490;-72
2023/07/19 08:12:55;;;;;;;11.15;3.70;;;28.00;77.30;;;;;;5075688;28;20466;-72
2023/07/19 08:15:23;;;;;;;12.73;4.28;;;28.10;76.30;;;;;;5075721;28;20044;-73
2023/07/19 08:17:49;;;;;;;12.05;3.90;;;28.10;76.10;;;;;;5075557;28;20044;-72
2023/07/19 08:20:15;;;;;;;11.88;4.10;;;28.10;75.70;;;;;;5075478;28;20024;-72
2023/07/19 08:22:41;;;;;;;10.45;4.13;;;28.20;76.20;;;;;;5075433;28;20032;-72
2023/07/19 08:25:07;;;;;;;12.48;3.78;;;28.20;75.30;;;;;;5075403;28;20028;-72
2023/07/19 08:27:33;;;;;;;12.43;4.38;;;28.30;75.10;;;;;;5075503;28;20103;-72
2023/07/19 08:30:05;;;;;;;15.85;3.80;;;28.30;74.80;;;;;;5075436;28;20162;-72
2023/07/19 08:32:32;;;;;;;;;;;28.40;75.00;;;;;;5075804;28;20478;-72
2023/07/19 08:34:57;;;;;;;10.02;4.43;;;28.50;75.30;;;;;;5075493;28;20351;-72
2023/07/19 08:37:23;;;;;;;10.77;3.88;;;28.50;75.70;;;;;;5075422;28;20023;-72
2023/07/19 08:39:49;;;;;;;15.00;3.85;;;28.50;75.40;;;;;;5074966;28;20025;-72
2023/07/19 08:42:15;;;;;;;13.63;4.65;;;28.60;75.40;;;;;;5057183;28;20025;-72
2023/07/19 08:44:41;;;;;;;11.70;4.22;;;28.70;75.60;;;;;;5074976;28;20035;-72
2023/07/19 08:47:11;;;;;;;8.38;4.15;;;28.70;74.70;;;;;;5075059;28;20025;-72
2023/07/19 08:49:38;;;;;;;13.35;4.88;;;28.80;75.00;;;;;;5074711;28;20024;-73
2023/07/19 08:52:07;;;;;;;11.57;4.20;;;28.90;76.50;;;;;;5074767;28;20024;-72
2023/07/19 08:54:32;;;;;;;11.88;4.78;;;28.90;75.70;;;;;;5074820;28;20025;-72
2023/07/19 08:56:58;;;;;;;13.25;3.97;;;29.00;75.30;;;;;;5056931;28;20025;-73
2023/07/19 08:59:25;;;;;;;16.60;4.32;;;29.00;75.20;;;;;;5074672;28;20028;-72
2023/07/19 09:01:51;;;;;;;12.02;4.50;;;29.10;74.30;;;;;;5057145;28;20017;-73
2023/07/19 09:04:17;;;;;;;18.42;4.70;;;29.10;74.30;;;;;;5074751;28;20047;-72
2023/07/19 09:06:42;;;;;;;10.80;4.35;;;29.10;74.00;;;;;;5074636;28;20060;-72
2023/07/19 09:09:09;;;;;;;15.52;5.65;;;29.10;73.70;;;;;;5074758;28;20093;-72
2023/07/19 09:11:35;;;;;;;14.18;4.32;;;29.10;73.10;;;;;;5074592;28;20020;-72
2023/07/19 09:14:01;;;;;;;10.85;4.20;;;29.10;72.00;;;;;;5074570;28;20493;-73
2023/07/19 09:16:29;;;;;;;10.30;4.55;;;29.20;71.70;;;;;;5076514;22;20060;-72
2023/07/19 09:18:57;;;;;;;23.65;4.40;;;29.20;72.40;;;;;;5054432;28;20057;-72
2023/07/19 09:21:43;;;;;;;9.25;3.95;;;29.20;73.40;;;;;;5054083;28;20467;-72
2023/07/19 09:24:11;;;;;;;12.05;3.92;;;29.30;74.20;;;;;;5054188;28;20029;-72
2023/07/19 09:27:03;;;;;;;11.13;4.30;;;29.40;74.30;;;;;;5054231;28;20040;-71
2023/07/19 09:29:30;;;;;;;14.18;5.47;;;29.40;75.10;;;;;;5050298;28;20128;-72
2023/07/19 09:31:56;;;;;;;11.32;4.68;;;29.50;75.00;;;;;;5054307;28;20027;-72
2023/07/19 09:34:25;;;;;;;12.52;3.95;;;29.60;74.30;;;;;;5054285;28;20033;-72
2023/07/19 09:36:52;;;;;;;14.20;5.25;;;29.60;74.10;;;;;;5054238;28;20021;-72
2023/07/19 09:39:19;;;;;;;13.82;4.95;;;29.70;74.70;;;;;;5054319;28;20031;-72
2023/07/19 09:41:45;;;;;;;13.07;4.63;;;29.80;75.20;;;;;;5054049;28;20092;-71
2023/07/19 09:44:13;;;;;;;10.38;4.38;;;29.80;74.40;;;;;;5053948;28;20480;-72
2023/07/19 09:46:39;;;;;;;9.32;4.57;;;29.90;73.50;;;;;;5053824;28;20040;-72
2023/07/19 09:49:05;;;;;;;9.82;4.93;;;30.00;73.10;;;;;;5053589;28;20382;-73
2023/07/19 09:51:33;;;;;;;12.13;4.97;;;29.90;72.90;;;;;;5053614;28;20036;-71
2023/07/19 09:54:09;;;;;;;10.52;4.78;;;30.00;74.00;;;;;;5053925;28;20025;-72
2023/07/19 09:56:36;;;;;;;11.40;4.43;;;30.00;73.60;;;;;;5053900;28;20033;-72
2023/07/19 09:59:04;;;;;;;13.90;4.95;;;30.10;73.50;;;;;;5053748;28;20066;-72
2023/07/19 10:01:30;;;;;;;10.82;4.70;;;30.10;73.40;;;;;;5053724;28;20467;-72
2023/07/19 10:04:01;;;;;;;14.15;5.28;;;30.10;72.50;;;;;;5052997;28;20021;-72
2023/07/19 10:06:30;;;;;;;14.45;4.80;;;30.10;71.80;;;;;;5053566;28;20120;-72
2023/07/19 10:09:23;;;;;;;16.52;5.60;;;30.10;71.50;;;;;;5053647;28;20025;-72
2023/07/19 10:11:49;;;;;;;12.75;5.95;;;30.10;71.60;;;;;;5053379;28;20029;-72
2023/07/19 10:14:25;;;;;;;10.98;4.60;;;30.10;71.30;;;;;;5053220;28;20033;-72
2023/07/19 10:16:58;;;;;;;9.02;4.50;;;30.10;72.10;;;;;;5053442;28;20402;-72
2023/07/19 10:19:25;;;;;;;15.68;5.40;;;30.20;73.30;;;;;;5053260;28;20481;-72
2023/07/19 10:22:20;;;;;;;13.38;5.30;;;30.20;73.20;;;;;;5053367;28;20493;-72
2023/07/19 10:25:03;;;;;;;15.68;5.78;;;30.30;72.70;;;;;;5035958;28;20033;-72
2023/07/19 10:27:35;;;;;;;11.95;4.75;;;30.30;72.50;;;;;;5053107;28;20117;-72
2023/07/19 10:30:05;;;;;;;8.93;4.70;;;30.40;72.50;;;;;;5053192;28;20027;-72
2023/07/19 10:32:31;;;;;;;14.27;5.22;;;30.50;72.10;;;;;;5053224;28;20108;-72
2023/07/19 10:34:56;;;;;;;14.00;5.00;;;30.40;71.70;;;;;;5053139;28;20101;-72
2023/07/19 10:37:22;;;;;;;11.52;5.05;;;30.40;72.30;;;;;;5052817;28;20033;-73
2023/07/19 10:39:48;;;;;;;11.75;5.28;;;30.50;72.40;;;;;;5052993;28;20025;-73
2023/07/19 10:42:14;;;;;;;16.58;5.65;;;30.50;72.40;;;;;;5053011;28;20478;-72
2023/07/19 10:44:40;;;;;;;16.58;5.35;;;30.50;72.90;;;;;;5052661;28;20497;-73
2023/07/19 10:47:06;;;;;;;15.82;5.63;;;30.50;72.90;;;;;;5052987;28;20033;-73
2023/07/19 10:49:32;;;;;;;12.82;5.38;;;30.60;73.40;;;;;;5052710;28;20021;-73
2023/07/19 10:51:59;;;;;;;14.52;5.20;;;30.60;73.10;;;;;;5052830;28;20051;-73
2023/07/19 10:54:25;;;;;;;16.77;5.30;;;30.60;73.30;;;;;;5052910;28;20437;-72
2023/07/19 10:56:53;;;;;;;13.63;5.45;;;30.60;73.10;;;;;;5035049;28;20027;-72
2023/07/19 10:59:20;;;;;;;13.23;5.82;;;30.60;72.50;;;;;;5052843;28;20024;-72
2023/07/19 11:01:49;;;;;;;17.13;5.25;;;30.60;71.90;;;;;;5052900;28;20494;-73
2023/07/19 11:04:18;;;;;;;16.15;5.65;;;30.70;72.70;;;;;;5052534;28;20025;-72
2023/07/19 11:06:55;;;;;;;19.25;5.45;;;30.70;72.30;;;;;;5052682;28;20082;-72
2023/07/19 11:09:22;;;;;;;9.80;4.85;;;30.70;72.60;;;;;;5052899;28;20048;-72
2023/07/19 11:11:49;;;;;;;17.77;5.75;;;30.70;72.80;;;;;;5052788;28;20108;-72
2023/07/19 11:14:28;;;;;;;16.58;5.95;;;30.60;73.20;;;;;;5035151;28;20490;-72
2023/07/19 11:16:56;;;;;;;19.38;5.63;;;30.60;73.00;;;;;;5056557;28;20045;-72
2023/07/19 11:19:38;;;;;;;11.05;6.25;;;30.60;72.70;;;;;;5056801;28;20021;-72
2023/07/19 11:22:05;;;;;;;10.23;4.93;;;30.50;72.40;;;;;;5056820;28;20052;-72
2023/07/19 11:24:41;;;;;;;11.10;5.35;;;30.40;72.90;;;;;;5056530;28;20389;-71
2023/07/19 11:27:11;;;;;;;15.70;5.25;;;30.40;73.40;;;;;;5056344;28;20040;-72
2023/07/19 11:29:37;;;;;;;15.15;5.30;;;30.30;73.50;;;;;;5056367;28;20385;-72
2023/07/19 11:32:21;;;;;;;18.65;6.00;;;30.30;73.70;;;;;;5056707;28;20029;-72
2023/07/19 11:34:56;;;;;;;17.45;5.55;;;30.20;73.20;;;;;;5056502;28;20032;-72
2023/07/19 11:37:31;;;;;;;22.77;6.68;;;30.10;73.20;;;;;;5056588;28;20107;-72
2023/07/19 11:39:58;;;;;;;19.45;6.63;;;30.00;75.90;;;;;;5056083;28;20021;-72
2023/07/19 11:42:59;;;;;;;20.95;7.40;;;30.00;78.40;;;;;;5056181;28;20032;-72
2023/07/19 11:45:27;;;;;;;17.33;7.40;;;29.80;80.60;;;;;;4975177;28;20184;-72
2023/07/19 11:47:58;;;;;;;19.95;7.10;;;29.70;81.20;;;;;;5040960;28;20059;-72
2023/07/19 11:50:25;;;;;;;16.80;6.95;;;29.60;82.10;;;;;;5056118;28;20021;-72
2023/07/19 11:52:54;;;;;;;15.40;7.78;;;29.50;83.00;;;;;;5055928;28;20134;-72
2023/07/19 11:55:22;;;;;;;17.00;7.10;;;29.50;85.00;;;;;;5056144;28;20487;-72
2023/07/19 11:57:49;;;;;;;18.67;7.90;;;29.40;85.20;;;;;;5056119;28;20494;-72
2023/07/19 12:00:17;;;;;;;18.27;6.90;;;29.40;86.20;;;;;;5055761;28;20070;-72
2023/07/19 12:02:46;;;;;;;15.80;7.60;;;29.40;86.70;;;;;;5055746;28;20029;-72
2023/07/19 12:05:14;;;;;;;15.60;7.15;;;29.30;87.00;;;;;;5055831;28;20033;-72
2023/07/19 12:07:40;;;;;;;16.60;7.63;;;29.40;87.30;;;;;;5055909;28;20486;-72
2023/07/19 12:10:07;;;;;;;15.98;7.30;;;29.50;87.90;;;;;;5055986;28;20070;-72
2023/07/19 12:12:33;;;;;;;13.27;6.70;;;29.60;87.90;;;;;;5055618;28;20132;-72
2023/07/19 12:15:05;;;;;;;14.68;6.00;;;29.60;87.80;;;;;;5055718;28;20029;-73
2023/07/19 12:17:32;;;;;;;11.52;5.70;;;29.70;87.20;;;;;;5055139;28;20518;-72
2023/07/19 12:19:59;;;;;;;17.63;5.32;;;29.70;86.80;;;;;;5055564;28;20028;-72
2023/07/19 12:22:27;;;;;;;10.48;4.75;;;29.80;86.10;;;;;;5055611;28;20021;-72
2023/07/19 12:24:53;;;;;;;13.73;4.80;;;29.80;85.40;;;;;;5055235;28;20075;-72
2023/07/19 12:27:19;;;;;;;9.88;5.00;;;29.80;84.40;;;;;;5054726;28;20025;-72
2023/07/19 12:29:44;;;;;;;14.45;5.13;;;29.90;83.20;;;;;;5055436;28;20467;-72
2023/07/19 12:32:10;;;;;;;14.57;5.28;;;30.00;82.60;;;;;;5055545;28;20036;-73
2023/07/19 12:34:36;;;;;;;11.02;5.55;;;30.00;82.90;;;;;;5055003;28;20121;-72
2023/07/19 12:37:02;;;;;;;16.13;5.10;;;30.10;82.80;;;;;;5055321;28;20025;-72
2023/07/19 12:39:27;;;;;;;14.68;5.43;;;30.10;82.00;;;;;;5055371;28;20387;-72